Ryuhomaru — JD2639 — position and weather

sailwx.info

Track history (hours):
 
Tides and Currents Weather Stations Pressure Air Temp Water Temp Dewpoint Dewpoint Depression Visibility Wind Speed Wind Dir Waves Ship Positions

Ryuhomaru

Last reported at 2016-Feb-06 05:32 UTC. Time now 2016-Feb-06 18:24 UTC.
Position N 34°33' E 135°27'.

Length 42 m; draft 3.5 m.

Type: Tug. MMSI: 431000586.

Date/timePositionNaut miles runAvg speedWind from/ knotsBaromVisibWave heightAir tempDewpointWater temp
2016-Feb-06 05:32N 34°33' E 135°27'1 0.5
2016-Feb-06 04:24N 34°33' E 135°26'0 0.1
2016-Feb-06 03:33N 34°33' E 135°26'4 3.5
2016-Feb-06 02:34N 34°33' E 135°22'2 1.6
2016-Feb-06 01:33N 34°33' E 135°24'1 0.7
2016-Feb-06 00:31N 34°33' E 135°24'2 1.8
2016-Feb-05 23:34N 34°33' E 135°27'0 0.0
2016-Feb-05 05:17N 34°33' E 135°27'0 0.0
2016-Feb-05 04:23N 34°33' E 135°27'5 1.4
2016-Feb-05 00:33N 34°33' E 135°20'1 0.7
2016-Feb-04 23:33N 34°34' E 135°21'4 4.1
2016-Feb-04 22:33N 34°33' E 135°26'1 0.6
2016-Feb-04 21:33N 34°33' E 135°27'0 0.0
2016-Feb-04 04:24N 34°33' E 135°27'6 6.7
2016-Feb-04 03:33N 34°38' E 135°24'0 0.3
2016-Feb-04 02:33N 34°38' E 135°23'6 5.4
2016-Feb-04 01:32N 34°33' E 135°27'0 0.0
2016-Feb-04 00:31N 34°33' E 135°27'0 0.0
2016-Feb-03 23:33N 34°33' E 135°27'0 0.0
2016-Feb-03 22:33N 34°33' E 135°27'0 0.0
2016-Feb-03 21:33N 34°33' E 135°27'0 0.0
2016-Feb-03 11:15N 34°33' E 135°27'4 6.3
2016-Feb-03 10:33N 34°37' E 135°24'2 2.5
2016-Feb-03 09:33N 34°39' E 135°26'2 2.1
2016-Feb-03 08:33N 34°38' E 135°23'1212.3
2016-Feb-03 07:33N 34°26' E 135°19'5 5.3
2016-Feb-03 06:33N 34°31' E 135°22'2 1.6
2016-Feb-03 05:31N 34°31' E 135°23'1 0.5
2016-Feb-03 02:32N 34°31' E 135°22'0 0.5
2016-Feb-03 01:33N 34°31' E 135°21'4 3.8
2016-Feb-03 00:33N 34°34' E 135°24'2 1.8
2016-Feb-02 23:31N 34°33' E 135°27'0 0.0
2016-Feb-02 22:33N 34°33' E 135°27'1 0.0
2016-Feb-02 06:30N 34°33' E 135°26'1 1.0
2016-Feb-02 05:21N 34°34' E 135°24'2 1.5
2016-Feb-02 04:04N 34°33' E 135°27'0 0.0
2016-Feb-02 03:33N 34°33' E 135°27'0 0.0
2016-Feb-02 02:29N 34°33' E 135°27'0 0.0
2016-Feb-02 01:08N 34°33' E 135°27'0 0.0
2016-Feb-02 00:34N 34°33' E 135°27'0 0.0
2016-Feb-01 23:33N 34°33' E 135°27'2 2.5
2016-Feb-01 22:33N 34°32' E 135°24'1 1.3
2016-Feb-01 21:33N 34°33' E 135°23'3 0.2
2016-Feb-01 06:28N 34°33' E 135°27'2 1.5
2016-Feb-01 05:03N 34°34' E 135°24'0 0.4
2016-Feb-01 04:33N 34°34' E 135°24'3 2.9
2016-Feb-01 03:32N 34°33' E 135°21'4 3.7
2016-Feb-01 02:33N 34°31' E 135°24'0 0.0
2016-Feb-01 01:33N 34°31' E 135°24'0 0.0
2016-Feb-01 00:33N 34°31' E 135°24'3 3.3
2016-Jan-31 23:33N 34°29' E 135°21'3 2.7
2016-Jan-31 22:30N 34°26' E 135°19'2 1.9
2016-Jan-31 21:30N 34°28' E 135°19'8 8.3
2016-Jan-31 20:32N 34°33' E 135°27'0 0.0
2016-Jan-30 08:21N 34°33' E 135°27'6 7.0
2016-Jan-30 07:33N 34°39' E 135°26'2 2.1
2016-Jan-30 06:33N 34°38' E 135°23'2 1.6
2016-Jan-30 05:33N 34°40' E 135°25'0 0.0
2016-Jan-30 04:33N 34°40' E 135°25'0 0.3
2016-Jan-30 03:33N 34°39' E 135°25'5 4.6
2016-Jan-30 02:33N 34°35' E 135°24'3 2.8
2016-Jan-30 01:33N 34°33' E 135°27'0 0.0
2016-Jan-30 00:33N 34°33' E 135°27'0 0.0
2016-Jan-29 23:14N 34°33' E 135°27'0 0.0
2016-Jan-29 05:27N 34°33' E 135°26'0 0.2
2016-Jan-29 04:33N 34°33' E 135°26'5 4.7
2016-Jan-29 03:31N 34°34' E 135°20'5 5.4
2016-Jan-29 02:32N 34°33' E 135°26'0 0.3
2016-Jan-29 01:33N 34°33' E 135°27'0 0.0
2016-Jan-29 00:33N 34°33' E 135°27'0 0.0
2016-Jan-28 23:33N 34°33' E 135°27'2 2.5
2016-Jan-28 22:32N 34°32' E 135°24'2 1.6
2016-Jan-28 21:33N 34°33' E 135°23'3 2.9
2016-Jan-28 20:33N 34°33' E 135°27'0 0.0
2016-Jan-28 05:18N 34°33' E 135°27'0 0.0
2016-Jan-28 04:33N 34°33' E 135°27'0 0.0
2016-Jan-28 03:31N 34°33' E 135°27'2 2.6
2016-Jan-28 02:33N 34°32' E 135°24'1 1.3
2016-Jan-28 01:30N 34°33' E 135°24'3 2.7
2016-Jan-28 00:31N 34°33' E 135°21'1 1.2
2016-Jan-27 23:33N 34°33' E 135°20'6 5.7
2016-Jan-27 22:34N 34°33' E 135°27'0 0.0
2016-Jan-27 21:34N 34°33' E 135°27'  
Track history (hours):
 
Tides and Currents Weather Stations Pressure Air Temp Water Temp Dewpoint Dewpoint Depression Visibility Wind Speed Wind Dir Waves Ship Positions

Ryuhomaru

Last reported at 2016-Feb-06 05:32 UTC. Time now 2016-Feb-06 18:24 UTC.
Position N 34°33' E 135°27'.

Length 42 m; draft 3.5 m.

Type: Tug. MMSI: 431000586.

Date/timePositionNaut miles runAvg speedWind from/ knotsBaromVisibWave heightAir tempDewpointWater temp
2016-Feb-06 05:32N 34°33' E 135°27'1 0.5
2016-Feb-06 04:24N 34°33' E 135°26'0 0.1
2016-Feb-06 03:33N 34°33' E 135°26'4 3.5
2016-Feb-06 02:34N 34°33' E 135°22'2 1.6
2016-Feb-06 01:33N 34°33' E 135°24'1 0.7
2016-Feb-06 00:31N 34°33' E 135°24'2 1.8
2016-Feb-05 23:34N 34°33' E 135°27'0 0.0
2016-Feb-05 05:17N 34°33' E 135°27'0 0.0
2016-Feb-05 04:23N 34°33' E 135°27'5 1.4
2016-Feb-05 00:33N 34°33' E 135°20'1 0.7
2016-Feb-04 23:33N 34°34' E 135°21'4 4.1
2016-Feb-04 22:33N 34°33' E 135°26'1 0.6
2016-Feb-04 21:33N 34°33' E 135°27'0 0.0
2016-Feb-04 04:24N 34°33' E 135°27'6 6.7
2016-Feb-04 03:33N 34°38' E 135°24'0 0.3
2016-Feb-04 02:33N 34°38' E 135°23'6 5.4
2016-Feb-04 01:32N 34°33' E 135°27'0 0.0
2016-Feb-04 00:31N 34°33' E 135°27'0 0.0
2016-Feb-03 23:33N 34°33' E 135°27'0 0.0
2016-Feb-03 22:33N 34°33' E 135°27'0 0.0
2016-Feb-03 21:33N 34°33' E 135°27'0 0.0
2016-Feb-03 11:15N 34°33' E 135°27'4 6.3
2016-Feb-03 10:33N 34°37' E 135°24'2 2.5
2016-Feb-03 09:33N 34°39' E 135°26'2 2.1
2016-Feb-03 08:33N 34°38' E 135°23'1212.3
2016-Feb-03 07:33N 34°26' E 135°19'5 5.3
2016-Feb-03 06:33N 34°31' E 135°22'2 1.6
2016-Feb-03 05:31N 34°31' E 135°23'1 0.5
2016-Feb-03 02:32N 34°31' E 135°22'0 0.5
2016-Feb-03 01:33N 34°31' E 135°21'4 3.8
2016-Feb-03 00:33N 34°34' E 135°24'2 1.8
2016-Feb-02 23:31N 34°33' E 135°27'0 0.0
2016-Feb-02 22:33N 34°33' E 135°27'1 0.0
2016-Feb-02 06:30N 34°33' E 135°26'1 1.0
2016-Feb-02 05:21N 34°34' E 135°24'2 1.5
2016-Feb-02 04:04N 34°33' E 135°27'0 0.0
2016-Feb-02 03:33N 34°33' E 135°27'0 0.0
2016-Feb-02 02:29N 34°33' E 135°27'0 0.0
2016-Feb-02 01:08N 34°33' E 135°27'0 0.0
2016-Feb-02 00:34N 34°33' E 135°27'0 0.0
2016-Feb-01 23:33N 34°33' E 135°27'2 2.5
2016-Feb-01 22:33N 34°32' E 135°24'1 1.3
2016-Feb-01 21:33N 34°33' E 135°23'3 0.2
2016-Feb-01 06:28N 34°33' E 135°27'2 1.5
2016-Feb-01 05:03N 34°34' E 135°24'0 0.4
2016-Feb-01 04:33N 34°34' E 135°24'3 2.9
2016-Feb-01 03:32N 34°33' E 135°21'4 3.7
2016-Feb-01 02:33N 34°31' E 135°24'0 0.0
2016-Feb-01 01:33N 34°31' E 135°24'0 0.0
2016-Feb-01 00:33N 34°31' E 135°24'3 3.3
2016-Jan-31 23:33N 34°29' E 135°21'3 2.7
2016-Jan-31 22:30N 34°26' E 135°19'2 1.9
2016-Jan-31 21:30N 34°28' E 135°19'8 8.3
2016-Jan-31 20:32N 34°33' E 135°27'0 0.0
2016-Jan-30 08:21N 34°33' E 135°27'6 7.0
2016-Jan-30 07:33N 34°39' E 135°26'2 2.1
2016-Jan-30 06:33N 34°38' E 135°23'2 1.6
2016-Jan-30 05:33N 34°40' E 135°25'0 0.0
2016-Jan-30 04:33N 34°40' E 135°25'0 0.3
2016-Jan-30 03:33N 34°39' E 135°25'5 4.6
2016-Jan-30 02:33N 34°35' E 135°24'3 2.8
2016-Jan-30 01:33N 34°33' E 135°27'0 0.0
2016-Jan-30 00:33N 34°33' E 135°27'0 0.0
2016-Jan-29 23:14N 34°33' E 135°27'0 0.0
2016-Jan-29 05:27N 34°33' E 135°26'0 0.2
2016-Jan-29 04:33N 34°33' E 135°26'5 4.7
2016-Jan-29 03:31N 34°34' E 135°20'5 5.4
2016-Jan-29 02:32N 34°33' E 135°26'0 0.3
2016-Jan-29 01:33N 34°33' E 135°27'0 0.0
2016-Jan-29 00:33N 34°33' E 135°27'0 0.0
2016-Jan-28 23:33N 34°33' E 135°27'2 2.5
2016-Jan-28 22:32N 34°32' E 135°24'2 1.6
2016-Jan-28 21:33N 34°33' E 135°23'3 2.9
2016-Jan-28 20:33N 34°33' E 135°27'0 0.0
2016-Jan-28 05:18N 34°33' E 135°27'0 0.0
2016-Jan-28 04:33N 34°33' E 135°27'0 0.0
2016-Jan-28 03:31N 34°33' E 135°27'2 2.6
2016-Jan-28 02:33N 34°32' E 135°24'1 1.3
2016-Jan-28 01:30N 34°33' E 135°24'3 2.7
2016-Jan-28 00:31N 34°33' E 135°21'1 1.2
2016-Jan-27 23:33N 34°33' E 135°20'6 5.7
2016-Jan-27 22:34N 34°33' E 135°27'0 0.0
2016-Jan-27 21:34N 34°33' E 135°27'  

Dump ship's entire track history